Time;durP1;ratioP1;P1;durP2;ratioP2;P2;SDS_P1;SDS_P2;PMS_P1;PMS_P2;Temp;Humidity;BMP_temperature;BMP_pressure;BME280_temperature;BME280_humidity;BME280_pressure;Samples;Min_cycle;Max_cycle;Signal;HPM_P1;HPM_P2
2022/08/10 00:02:26;;;;;;;2.45;1.50;;;20.20;71.20;;;;;;5111020;28;20035;-82
2022/08/10 00:04:52;;;;;;;5.05;1.90;;;20.20;71.50;;;;;;5111712;28;20027;-82
2022/08/10 00:07:17;;;;;;;2.90;1.90;;;20.20;71.80;;;;;;5110163;28;20055;-82
2022/08/10 00:09:43;;;;;;;2.08;1.67;;;20.10;71.90;;;;;;5110641;28;20024;-82
2022/08/10 00:12:08;;;;;;;2.53;1.85;;;20.00;72.10;;;;;;5110841;28;20579;-82
2022/08/10 00:14:34;;;;;;;3.13;1.42;;;20.00;72.20;;;;;;5110484;28;20035;-82
2022/08/10 00:16:59;;;;;;;2.50;1.70;;;20.00;73.00;;;;;;5110371;28;20035;-82
2022/08/10 00:19:25;;;;;;;3.58;2.20;;;19.90;72.80;;;;;;5110485;28;20059;-81
2022/08/10 00:21:50;;;;;;;2.78;1.45;;;19.90;73.20;;;;;;5110646;28;20043;-81
2022/08/10 00:24:16;;;;;;;4.22;1.85;;;19.80;73.40;;;;;;5126541;28;20027;-81
2022/08/10 00:26:41;;;;;;;3.50;2.38;;;19.80;73.60;;;;;;5110269;28;20171;-81
2022/08/10 00:29:07;;;;;;;3.88;2.17;;;19.70;74.20;;;;;;5110741;28;20023;-82
2022/08/10 00:31:32;;;;;;;4.93;2.10;;;19.70;74.40;;;;;;5110149;28;20371;-82
2022/08/10 00:33:58;;;;;;;7.20;2.45;;;19.60;74.50;;;;;;5110613;28;20034;-81
2022/08/10 00:36:23;;;;;;;2.95;2.10;;;19.60;74.70;;;;;;5108413;28;20568;-82
2022/08/10 00:38:49;;;;;;;8.70;1.73;;;19.60;75.30;;;;;;5110245;28;20036;-82
2022/08/10 00:41:14;;;;;;;3.13;1.70;;;19.50;75.40;;;;;;5108566;28;20118;-82
2022/08/10 00:43:40;;;;;;;3.75;1.88;;;19.40;75.50;;;;;;5110279;28;20700;-82
2022/08/10 00:46:05;;;;;;;5.28;1.90;;;19.40;75.90;;;;;;5109964;28;20047;-82
2022/08/10 00:48:31;;;;;;;3.33;2.00;;;19.30;76.30;;;;;;5110434;28;20027;-81
2022/08/10 00:50:58;;;;;;;5.50;2.25;;;19.30;76.70;;;;;;5109362;28;20473;-82
2022/08/10 00:53:24;;;;;;;3.00;1.70;;;19.20;76.70;;;;;;5114526;28;20035;-82
2022/08/10 00:55:50;;;;;;;4.00;1.38;;;19.20;76.80;;;;;;5112617;28;20027;-82
2022/08/10 00:58:16;;;;;;;2.95;1.92;;;19.10;77.00;;;;;;5120507;28;20035;-82
2022/08/10 01:00:41;;;;;;;1.73;1.55;;;19.10;77.40;;;;;;5121123;28;20027;-82
2022/08/10 01:03:07;;;;;;;2.42;1.60;;;19.10;77.80;;;;;;5115629;28;20106;-82
2022/08/10 01:05:41;;;;;;;4.55;1.67;;;19.10;77.90;;;;;;5113403;27;20032;-82
2022/08/10 01:08:24;;;;;;;3.05;1.60;;;19.00;78.10;;;;;;5112454;28;20031;-82
2022/08/10 01:11:04;;;;;;;1.95;1.52;;;19.00;78.20;;;;;;5112296;28;20124;-80
2022/08/10 01:13:43;;;;;;;2.20;1.42;;;18.90;78.30;;;;;;5113813;28;20035;-81
2022/08/10 01:16:19;;;;;;;2.92;1.77;;;18.90;78.40;;;;;;5113612;28;20112;-81
2022/08/10 01:18:51;;;;;;;1.80;1.58;;;18.90;78.90;;;;;;5113881;28;20134;-82
2022/08/10 01:21:38;;;;;;;2.63;1.63;;;18.80;79.10;;;;;;5112975;28;20816;-81
2022/08/10 01:24:26;;;;;;;3.60;1.30;;;18.80;79.70;;;;;;5112059;28;20091;-81
2022/08/10 01:27:17;;;;;;;1.65;1.25;;;18.80;80.00;;;;;;5113172;28;20047;-82
2022/08/10 01:29:49;;;;;;;13.90;1.60;;;18.70;79.60;;;;;;5113532;28;20019;-82
2022/08/10 01:32:20;;;;;;;4.00;1.65;;;18.70;79.90;;;;;;5113496;28;20024;-82
2022/08/10 01:34:55;;;;;;;2.97;1.50;;;18.70;80.20;;;;;;5114117;28;20034;-82
2022/08/10 01:37:28;;;;;;;2.83;1.80;;;18.70;80.50;;;;;;5113557;28;20044;-82
2022/08/10 01:39:59;;;;;;;2.38;1.50;;;18.60;80.40;;;;;;5114151;28;20032;-82
2022/08/10 01:42:26;;;;;;;2.03;1.45;;;18.60;81.20;;;;;;5113560;28;20373;-82
2022/08/10 01:44:55;;;;;;;2.72;1.33;;;18.60;81.70;;;;;;5113814;28;20047;-82
2022/08/10 01:50:27;;;;;;;2.08;1.30;;;18.50;82.00;;;;;;5113671;28;20504;-82
2022/08/10 01:52:58;;;;;;;2.10;1.70;;;18.50;82.40;;;;;;5113740;28;20076;-82
2022/08/10 01:55:25;;;;;;;4.75;1.80;;;18.40;82.40;;;;;;5111857;28;20031;-82
2022/08/10 01:57:53;;;;;;;2.00;1.40;;;18.40;82.70;;;;;;5113180;27;20492;-81
2022/08/10 02:00:18;;;;;;;1.58;1.40;;;18.40;82.90;;;;;;5112979;28;20469;-80
2022/08/10 02:02:46;;;;;;;1.83;1.33;;;18.40;82.90;;;;;;5110946;28;20035;-81
2022/08/10 02:05:14;;;;;;;3.13;1.35;;;18.40;83.20;;;;;;5112299;28;20023;-81
2022/08/10 02:07:41;;;;;;;2.35;1.63;;;18.40;83.60;;;;;;5114649;28;20031;-82
2022/08/10 02:10:10;;;;;;;3.45;1.60;;;18.40;84.10;;;;;;5113093;27;20042;-81
2022/08/10 02:12:38;;;;;;;2.70;1.92;;;18.40;84.50;;;;;;5112446;27;20032;-82
2022/08/10 02:15:12;;;;;;;4.50;1.73;;;18.40;84.90;;;;;;5123513;28;20023;-83
2022/08/10 02:17:42;;;;;;;2.90;1.60;;;18.30;84.90;;;;;;5114354;28;20024;-82
2022/08/10 02:20:13;;;;;;;2.88;1.63;;;18.30;85.10;;;;;;5113074;28;20491;-82
2022/08/10 02:22:39;;;;;;;2.30;1.52;;;18.30;85.30;;;;;;5111404;28;20032;-82
2022/08/10 02:25:07;;;;;;;2.50;1.73;;;18.30;85.80;;;;;;5113061;28;20043;-81
2022/08/10 02:27:33;;;;;;;2.03;1.50;;;18.20;86.20;;;;;;5112517;28;20032;-82
2022/08/10 02:29:59;;;;;;;4.15;1.75;;;18.30;87.10;;;;;;5113059;28;20034;-82
2022/08/10 02:32:27;;;;;;;2.83;2.08;;;18.20;87.40;;;;;;5112716;28;20032;-82
2022/08/10 02:34:54;;;;;;;4.95;1.95;;;18.20;87.50;;;;;;5113045;28;20028;-82
2022/08/10 02:37:25;;;;;;;3.28;1.83;;;18.20;87.60;;;;;;5112434;28;20102;-81
2022/08/10 02:39:51;;;;;;;2.70;2.28;;;18.20;87.60;;;;;;5113182;28;20510;-82
2022/08/10 02:42:32;;;;;;;3.83;2.13;;;18.10;87.90;;;;;;5111902;28;20027;-82
2022/08/10 02:45:06;;;;;;;3.10;1.73;;;18.10;88.60;;;;;;5113237;28;20032;-82
2022/08/10 02:47:39;;;;;;;2.47;1.85;;;18.10;88.20;;;;;;5112509;28;20446;-82
2022/08/10 02:50:20;;;;;;;;;;;18.10;88.80;;;;;;5113314;28;20126;-82
2022/08/10 02:52:53;;;;;;;3.33;1.77;;;18.10;88.90;;;;;;5112817;28;19908;-82
2022/08/10 02:55:37;;;;;;;2.45;1.95;;;18.10;88.90;;;;;;5110631;28;20801;-81
2022/08/10 02:58:09;;;;;;;2.78;1.77;;;18.10;89.60;;;;;;5112564;28;20107;-82
2022/08/10 03:00:50;;;;;;;4.23;2.00;;;18.10;90.00;;;;;;5112452;28;20134;-82
2022/08/10 03:03:22;;;;;;;3.83;1.65;;;18.10;90.10;;;;;;5111075;28;20842;-82
2022/08/10 03:05:52;;;;;;;3.33;1.85;;;18.10;90.10;;;;;;5111439;28;20024;-82
2022/08/10 03:08:23;;;;;;;2.13;1.65;;;18.20;90.10;;;;;;5111592;28;20698;-82
2022/08/10 03:10:50;;;;;;;3.78;1.95;;;18.20;90.30;;;;;;5114769;28;20031;-81
2022/08/10 03:13:17;;;;;;;2.72;1.88;;;18.20;90.30;;;;;;5127149;28;20091;-82
2022/08/10 03:15:44;;;;;;;3.30;1.63;;;18.20;90.40;;;;;;5116234;28;20028;-82
2022/08/10 03:18:11;;;;;;;2.67;1.73;;;18.20;90.30;;;;;;5112862;28;20027;-82
2022/08/10 03:20:40;;;;;;;2.75;1.80;;;18.20;90.50;;;;;;5112272;28;20031;-83
2022/08/10 03:23:13;;;;;;;3.65;1.60;;;18.20;90.50;;;;;;5111863;28;20051;-82
2022/08/10 03:25:40;;;;;;;2.67;1.80;;;18.30;90.70;;;;;;5110699;28;20111;-82
2022/08/10 03:28:07;;;;;;;2.03;1.42;;;18.30;90.80;;;;;;5112053;28;20050;-82
2022/08/10 03:30:33;;;;;;;3.00;1.80;;;18.40;90.80;;;;;;5111966;28;20023;-82
2022/08/10 03:33:01;;;;;;;3.80;1.80;;;18.30;90.60;;;;;;5111166;28;20467;-82
2022/08/10 03:35:27;;;;;;;1.83;1.42;;;18.40;90.70;;;;;;5111014;27;20033;-83
2022/08/10 03:37:53;;;;;;;1.98;1.60;;;18.40;90.50;;;;;;5112056;28;20030;-83
2022/08/10 03:40:18;;;;;;;1.88;1.60;;;18.40;90.70;;;;;;5110938;28;20019;-82
2022/08/10 03:42:46;;;;;;;4.05;1.85;;;18.40;90.70;;;;;;5112184;28;20050;-81
2022/08/10 03:45:12;;;;;;;2.75;2.00;;;18.40;90.80;;;;;;5122147;28;20036;-82
2022/08/10 03:47:41;;;;;;;2.20;1.60;;;18.40;90.90;;;;;;5115611;28;20401;-83
2022/08/10 03:50:08;;;;;;;2.65;1.90;;;18.40;91.00;;;;;;5111981;28;20034;-83
2022/08/10 03:52:34;;;;;;;2.28;1.48;;;18.40;91.10;;;;;;5109638;28;20405;-82
2022/08/10 03:55:00;;;;;;;3.90;1.92;;;18.40;91.20;;;;;;5109674;28;20034;-83
2022/08/10 03:57:28;;;;;;;2.15;1.60;;;18.40;91.10;;;;;;5110508;28;20026;-82
2022/08/10 03:59:55;;;;;;;3.17;2.03;;;18.40;91.30;;;;;;5111234;28;20026;-82
2022/08/10 04:02:20;;;;;;;2.78;1.60;;;18.30;91.50;;;;;;5110469;28;20035;-82
2022/08/10 04:04:46;;;;;;;4.18;1.67;;;18.30;91.50;;;;;;5109887;28;20035;-82
2022/08/10 04:07:12;;;;;;;2.08;1.80;;;18.30;91.30;;;;;;5111004;28;20027;-82
2022/08/10 04:09:38;;;;;;;2.08;1.52;;;18.30;91.40;;;;;;5109933;28;20401;-81
2022/08/10 04:12:04;;;;;;;3.40;2.10;;;18.30;91.50;;;;;;5111246;28;20092;-81
2022/08/10 04:14:30;;;;;;;3.50;1.83;;;18.30;91.60;;;;;;5109830;28;20114;-81
2022/08/10 04:16:55;;;;;;;2.75;1.77;;;18.30;91.70;;;;;;5114761;28;20528;-81
2022/08/10 04:19:23;;;;;;;3.38;2.53;;;18.30;91.80;;;;;;5114658;28;20038;-80
2022/08/10 04:22:09;;;;;;;3.00;1.88;;;18.20;91.90;;;;;;5109308;28;20538;-82
2022/08/10 04:24:36;;;;;;;4.55;2.08;;;18.30;91.90;;;;;;5110647;28;20067;-81
2022/08/10 04:27:01;;;;;;;2.00;1.45;;;18.20;91.90;;;;;;5112283;28;20118;-82
2022/08/10 04:29:27;;;;;;;2.97;1.90;;;18.20;91.80;;;;;;5114566;28;20063;-81
2022/08/10 04:31:53;;;;;;;3.67;2.20;;;18.20;92.10;;;;;;5117585;28;20028;-82
2022/08/10 04:34:19;;;;;;;2.33;2.10;;;18.20;92.20;;;;;;5115183;28;20477;-82
2022/08/10 04:36:48;;;;;;;3.03;1.90;;;18.20;92.30;;;;;;5114747;28;20023;-82
2022/08/10 04:39:13;;;;;;;6.53;1.80;;;18.20;92.30;;;;;;5115223;28;20027;-82
2022/08/10 04:41:40;;;;;;;1.80;1.58;;;18.20;92.30;;;;;;5114989;28;20034;-82
2022/08/10 04:44:06;;;;;;;3.45;2.10;;;18.20;92.50;;;;;;5115454;28;20070;-82
2022/08/10 04:46:31;;;;;;;3.08;1.90;;;18.20;92.50;;;;;;5114070;28;20027;-82
2022/08/10 04:48:57;;;;;;;2.90;1.98;;;18.20;92.50;;;;;;5113282;28;20065;-82
2022/08/10 04:51:22;;;;;;;2.65;2.10;;;18.30;92.60;;;;;;5114106;28;20062;-82
2022/08/10 04:53:50;;;;;;;2.80;2.30;;;18.20;92.60;;;;;;5113330;28;20028;-83
2022/08/10 04:56:15;;;;;;;6.28;2.20;;;18.20;92.80;;;;;;5112969;28;20032;-82
2022/08/10 04:58:41;;;;;;;6.93;2.10;;;18.20;92.80;;;;;;5114509;28;20393;-81
2022/08/10 05:01:06;;;;;;;2.60;2.08;;;18.20;92.80;;;;;;5110968;28;20043;-82
2022/08/10 05:03:32;;;;;;;5.70;2.13;;;18.20;92.80;;;;;;5120951;27;20028;-82
2022/08/10 05:05:57;;;;;;;3.22;2.00;;;18.30;92.90;;;;;;5107559;28;20031;-82
2022/08/10 05:08:24;;;;;;;4.80;2.92;;;18.30;93.00;;;;;;5106890;28;20044;-82
2022/08/10 05:10:50;;;;;;;5.10;2.10;;;18.30;93.00;;;;;;5106176;28;20024;-82
2022/08/10 05:13:15;;;;;;;2.30;1.85;;;18.30;93.00;;;;;;5112678;28;20087;-81
2022/08/10 05:15:42;;;;;;;3.55;2.45;;;18.30;93.00;;;;;;5113565;28;20102;-82
2022/08/10 05:18:08;;;;;;;3.83;2.13;;;18.30;93.20;;;;;;5114243;28;20015;-82
2022/08/10 05:20:33;;;;;;;3.95;2.20;;;18.30;93.20;;;;;;5113608;28;20038;-82
2022/08/10 05:22:59;;;;;;;3.70;2.38;;;18.30;93.10;;;;;;5114270;27;20023;-82
2022/08/10 05:25:24;;;;;;;3.60;2.17;;;18.30;93.10;;;;;;5113387;28;20115;-81
2022/08/10 05:27:50;;;;;;;8.85;1.80;;;18.40;93.30;;;;;;5113959;28;20027;-80
2022/08/10 05:30:18;;;;;;;6.43;2.33;;;18.40;93.30;;;;;;5114287;28;20112;-82
2022/08/10 05:32:44;;;;;;;3.70;2.42;;;18.50;93.30;;;;;;5113601;28;20032;-82
2022/08/10 05:35:09;;;;;;;14.05;2.50;;;18.60;93.30;;;;;;5113901;28;20085;-81
2022/08/10 05:37:36;;;;;;;5.13;2.60;;;18.60;93.40;;;;;;5112617;28;20027;-81
2022/08/10 05:40:04;;;;;;;4.70;2.95;;;18.50;93.50;;;;;;5114229;28;20454;-81
2022/08/10 05:42:30;;;;;;;3.65;1.90;;;18.60;93.50;;;;;;5113826;28;20039;-81
2022/08/10 05:44:55;;;;;;;10.13;2.72;;;18.60;93.60;;;;;;5114638;28;20106;-81
2022/08/10 05:47:21;;;;;;;7.50;2.05;;;18.70;93.40;;;;;;5113072;28;20027;-82
2022/08/10 05:49:47;;;;;;;5.10;2.63;;;18.70;93.50;;;;;;5113615;28;20031;-80
2022/08/10 05:52:14;;;;;;;16.33;2.67;;;18.70;93.60;;;;;;5113876;28;20545;-81
2022/08/10 05:54:40;;;;;;;7.40;2.38;;;18.70;93.60;;;;;;5113725;28;20055;-83
2022/08/10 05:57:05;;;;;;;4.40;2.55;;;18.80;93.60;;;;;;5111114;28;20062;-83
2022/08/10 05:59:33;;;;;;;4.15;2.42;;;18.80;93.60;;;;;;5113477;28;20392;-82
2022/08/10 06:02:03;;;;;;;7.60;2.78;;;18.70;93.70;;;;;;5122801;28;20083;-83
2022/08/10 06:04:37;;;;;;;5.53;2.22;;;18.70;93.60;;;;;;5124628;27;20056;-82
2022/08/10 06:07:04;;;;;;;6.05;2.00;;;18.70;93.60;;;;;;5124809;28;20047;-82
2022/08/10 06:09:31;;;;;;;2.70;1.92;;;18.80;93.50;;;;;;5124153;28;20031;-82
2022/08/10 06:11:58;;;;;;;4.45;2.30;;;18.90;93.70;;;;;;5122737;28;20032;-82
2022/08/10 06:17:12;;;;;;;9.40;2.38;;;19.10;93.30;;;;;;5122903;28;20131;-83
2022/08/10 06:19:38;;;;;;;6.57;2.30;;;19.20;93.10;;;;;;5121642;28;20044;-82
2022/08/10 06:22:04;;;;;;;3.92;2.08;;;19.20;93.10;;;;;;5122586;28;20039;-83
2022/08/10 06:24:32;;;;;;;7.22;2.63;;;19.30;93.20;;;;;;5115406;27;20035;-83
2022/08/10 06:26:58;;;;;;;7.03;2.25;;;19.30;93.00;;;;;;5113649;28;20016;-83
2022/08/10 06:29:25;;;;;;;3.85;2.55;;;19.50;92.90;;;;;;5112306;28;20481;-83
2022/08/10 06:31:52;;;;;;;6.75;2.15;;;19.60;92.50;;;;;;5112168;28;20031;-83
2022/08/10 06:34:25;;;;;;;4.88;2.45;;;19.60;92.60;;;;;;5112334;28;20231;-83
2022/08/10 06:36:53;;;;;;;5.45;2.10;;;19.70;92.20;;;;;;5111887;28;20032;-82
2022/08/10 06:39:21;;;;;;;5.32;2.53;;;19.80;92.60;;;;;;5110485;28;20069;-83
2022/08/10 06:41:50;;;;;;;4.30;2.60;;;19.80;92.20;;;;;;5111951;28;20019;-83
2022/08/10 06:44:25;;;;;;;6.80;2.38;;;19.90;92.10;;;;;;5110517;28;20055;-83
2022/08/10 06:46:54;;;;;;;8.10;1.95;;;19.90;92.30;;;;;;5111466;28;20031;-83
2022/08/10 06:49:21;;;;;;;3.03;1.70;;;19.90;92.10;;;;;;5110077;28;20028;-82
2022/08/10 06:51:52;;;;;;;6.68;1.55;;;20.00;91.90;;;;;;5111534;28;20030;-83
2022/08/10 06:54:22;;;;;;;12.68;2.08;;;20.00;92.00;;;;;;5111610;28;20153;-83
2022/08/10 06:56:49;;;;;;;3.85;1.90;;;20.10;91.90;;;;;;5111279;28;20059;-81
2022/08/10 06:59:34;;;;;;;3.38;1.75;;;20.20;91.30;;;;;;5111924;28;20128;-82
2022/08/10 07:02:04;;;;;;;5.60;1.77;;;20.30;91.20;;;;;;5111194;28;20039;-82
2022/08/10 07:04:43;;;;;;;9.35;2.42;;;20.50;90.90;;;;;;5111779;28;20051;-84
2022/08/10 07:07:14;;;;;;;4.85;2.10;;;20.60;91.00;;;;;;5111138;28;20080;-84
2022/08/10 07:09:40;;;;;;;11.80;2.53;;;20.80;90.50;;;;;;5111639;28;20517;-82
2022/08/10 07:12:07;;;;;;;2.40;2.10;;;20.90;90.20;;;;;;5111337;28;20042;-83
2022/08/10 07:14:37;;;;;;;10.40;2.10;;;21.00;90.20;;;;;;5111254;28;20027;-82
2022/08/10 07:17:04;;;;;;;3.75;1.98;;;21.20;90.10;;;;;;5111333;28;20023;-83
2022/08/10 07:19:31;;;;;;;4.55;2.15;;;21.40;89.20;;;;;;5111531;28;20102;-82
2022/08/10 07:21:57;;;;;;;7.22;2.05;;;21.40;89.80;;;;;;5111800;28;20036;-83
2022/08/10 07:24:24;;;;;;;10.90;2.40;;;21.60;90.00;;;;;;5111501;28;20353;-83
2022/08/10 07:26:53;;;;;;;3.50;2.08;;;21.70;88.20;;;;;;5111218;28;20019;-83
2022/08/10 07:29:20;;;;;;;5.45;2.35;;;21.90;87.00;;;;;;5111830;28;20029;-83
2022/08/10 07:31:48;;;;;;;5.03;2.35;;;21.90;86.10;;;;;;5111937;28;20020;-83
2022/08/10 07:34:18;;;;;;;5.68;2.42;;;22.10;85.80;;;;;;5112384;28;20711;-82
2022/08/10 07:36:46;;;;;;;2.17;1.73;;;22.10;85.60;;;;;;5119947;28;20072;-83
2022/08/10 07:39:13;;;;;;;3.90;2.00;;;22.30;86.30;;;;;;5117304;28;20024;-83
2022/08/10 07:41:41;;;;;;;5.55;2.53;;;22.50;86.00;;;;;;5110996;28;20469;-82
2022/08/10 07:44:10;;;;;;;5.70;1.80;;;22.60;85.60;;;;;;5111218;28;20114;-84
2022/08/10 07:46:41;;;;;;;4.07;1.70;;;22.70;85.30;;;;;;5110415;28;20031;-84
2022/08/10 07:49:13;;;;;;;3.00;1.70;;;22.90;85.60;;;;;;5111389;27;20027;-84
2022/08/10 07:51:39;;;;;;;6.60;1.90;;;23.10;82.80;;;;;;5109594;28;20166;-84
2022/08/10 07:54:07;;;;;;;3.75;1.67;;;23.20;81.80;;;;;;5110252;28;20035;-84
2022/08/10 07:56:36;;;;;;;5.90;1.73;;;23.40;81.90;;;;;;5110488;28;20031;-84
2022/08/10 07:59:12;;;;;;;3.35;1.60;;;23.50;79.90;;;;;;5110017;28;20031;-85
2022/08/10 08:01:47;;;;;;;3.97;1.88;;;23.50;78.90;;;;;;5112387;28;20123;-84
2022/08/10 08:04:13;;;;;;;2.20;1.33;;;23.60;77.90;;;;;;5115671;28;20111;-85
2022/08/10 08:06:41;;;;;;;3.25;1.50;;;23.80;77.60;;;;;;5113777;28;20026;-86
2022/08/10 08:09:07;;;;;;;2.40;1.20;;;24.00;77.60;;;;;;5114148;28;20024;-84
2022/08/10 08:11:35;;;;;;;4.03;1.10;;;24.10;76.10;;;;;;5115096;28;20031;-84
2022/08/10 08:14:02;;;;;;;3.83;1.20;;;24.30;75.50;;;;;;5115498;28;20370;-84
2022/08/10 08:16:30;;;;;;;2.47;1.23;;;24.40;76.50;;;;;;5114782;28;20024;-84
2022/08/10 08:18:57;;;;;;;3.45;1.30;;;24.50;76.00;;;;;;5131211;27;20114;-85
2022/08/10 08:21:23;;;;;;;2.50;1.50;;;24.70;74.30;;;;;;5113368;28;20038;-85
2022/08/10 08:23:50;;;;;;;3.17;1.13;;;24.90;74.60;;;;;;5115548;27;20051;-85
2022/08/10 08:26:17;;;;;;;3.40;1.30;;;25.10;73.60;;;;;;5114434;28;20027;-84
2022/08/10 08:28:44;;;;;;;2.90;1.10;;;25.10;72.40;;;;;;5115073;28;20035;-86
2022/08/10 08:31:14;;;;;;;5.50;1.20;;;25.20;71.90;;;;;;5113569;28;20031;-85
2022/08/10 08:33:42;;;;;;;5.40;1.33;;;25.20;72.50;;;;;;5115382;28;20538;-85
2022/08/10 08:36:09;;;;;;;9.02;1.73;;;25.20;70.70;;;;;;5114292;28;20470;-85
2022/08/10 08:38:35;;;;;;;2.42;1.10;;;25.40;71.70;;;;;;5115203;28;20035;-84
2022/08/10 08:41:20;;;;;;;2.45;0.93;;;25.50;70.60;;;;;;5114610;28;20031;-85
2022/08/10 08:43:58;;;;;;;3.75;1.42;;;25.60;71.10;;;;;;5115580;28;20523;-84
2022/08/10 08:46:48;;;;;;;2.45;1.10;;;25.70;68.80;;;;;;5114141;28;20016;-84
2022/08/10 08:49:25;;;;;;;10.27;1.20;;;25.70;67.20;;;;;;5082694;28;20626;-85
2022/08/10 08:52:13;;;;;;;5.97;1.20;;;25.90;68.40;;;;;;5113012;28;20032;-86
2022/08/10 08:54:50;;;;;;;2.38;1.23;;;25.90;68.00;;;;;;5114094;28;20106;-84
2022/08/10 08:57:27;;;;;;;7.13;1.73;;;26.10;70.60;;;;;;5113522;28;20032;-85
2022/08/10 09:00:01;;;;;;;1.88;0.95;;;26.30;67.50;;;;;;5113873;28;20024;-84
2022/08/10 09:02:52;;;;;;;4.38;1.02;;;26.40;65.00;;;;;;5113704;28;20111;-85
2022/08/10 09:05:54;;;;;;;2.03;0.82;;;26.40;67.20;;;;;;5117160;28;20034;-85
2022/08/10 09:09:06;;;;;;;3.37;1.10;;;26.50;65.80;;;;;;5122315;28;20031;-84
2022/08/10 09:12:00;;;;;;;2.53;1.17;;;26.70;65.50;;;;;;5120973;28;20058;-85
2022/08/10 09:14:52;;;;;;;1.95;0.88;;;26.90;64.70;;;;;;5121327;28;20099;-84
2022/08/10 09:17:39;;;;;;;6.43;1.10;;;27.10;62.50;;;;;;5088637;28;20039;-85
2022/08/10 09:20:31;;;;;;;3.30;0.82;;;27.10;62.00;;;;;;5119242;28;20035;-86
2022/08/10 09:23:10;;;;;;;2.13;0.90;;;27.20;61.60;;;;;;5116444;28;20042;-84
2022/08/10 09:25:43;;;;;;;2.35;0.65;;;27.20;61.70;;;;;;5117659;28;20036;-86
2022/08/10 09:28:18;;;;;;;1.83;0.98;;;27.20;60.30;;;;;;5116580;28;20020;-86
2022/08/10 09:30:52;;;;;;;1.33;0.90;;;27.10;60.30;;;;;;5117046;28;20031;-85
2022/08/10 09:34:02;;;;;;;3.05;1.05;;;27.20;61.50;;;;;;5120201;28;20031;-85
2022/08/10 09:36:46;;;;;;;2.53;0.95;;;27.30;63.00;;;;;;5117845;28;20023;-86
2022/08/10 09:39:32;;;;;;;4.00;1.15;;;27.50;61.00;;;;;;5116583;28;20477;-86
2022/08/10 09:42:12;;;;;;;2.10;0.80;;;27.60;58.80;;;;;;5115002;28;20114;-86
2022/08/10 09:44:42;;;;;;;1.67;0.98;;;27.50;59.80;;;;;;5113315;28;20469;-87
2022/08/10 09:47:18;;;;;;;2.00;0.80;;;27.60;59.20;;;;;;5113416;28;20067;-85
2022/08/10 09:50:05;;;;;;;1.95;1.15;;;27.60;59.00;;;;;;5113286;28;20024;-85
2022/08/10 09:52:50;;;;;;;2.53;1.20;;;27.60;59.10;;;;;;5113101;28;20030;-86
2022/08/10 09:55:47;;;;;;;4.85;1.10;;;27.30;60.60;;;;;;5113195;28;20024;-86
2022/08/10 09:58:50;;;;;;;3.42;1.33;;;27.30;58.70;;;;;;5111992;28;20020;-85
2022/08/10 10:01:28;;;;;;;10.65;1.35;;;27.30;58.90;;;;;;5111464;28;20028;-86
2022/08/10 10:04:22;;;;;;;9.07;1.10;;;27.30;59.20;;;;;;5113407;28;20099;-84
2022/08/10 10:06:54;;;;;;;2.20;1.00;;;27.40;60.80;;;;;;5113157;28;20084;-88
2022/08/10 10:09:50;;;;;;;3.00;1.20;;;27.60;59.90;;;;;;5111956;28;20366;-85
2022/08/10 10:12:43;;;;;;;6.07;1.10;;;27.70;59.70;;;;;;5112405;28;20039;-86
2022/08/10 10:15:21;;;;;;;;;;;28.00;59.90;;;;;;5113669;28;20024;-87
2022/08/10 10:18:02;;;;;;;13.00;1.13;;;28.20;59.70;;;;;;5113808;28;20376;-88
2022/08/10 10:20:38;;;;;;;9.93;1.33;;;28.40;56.60;;;;;;5113478;28;20033;-88
2022/08/10 10:23:21;;;;;;;1.70;0.90;;;28.50;57.60;;;;;;5111973;28;20065;-89
2022/08/10 10:26:11;;;;;;;5.15;0.88;;;28.60;59.00;;;;;;5111113;28;20026;-85
2022/08/10 10:28:41;;;;;;;6.53;0.90;;;28.60;57.60;;;;;;5111320;28;20024;-86
2022/08/10 10:31:29;;;;;;;3.67;1.10;;;28.80;56.80;;;;;;5112538;27;20457;-88
2022/08/10 10:34:15;;;;;;;2.63;1.20;;;28.90;57.60;;;;;;5113179;28;20542;-87
2022/08/10 10:36:42;;;;;;;5.75;1.30;;;29.10;57.20;;;;;;5112175;28;20785;-87
2022/08/10 10:39:12;;;;;;;3.70;0.90;;;29.40;55.80;;;;;;5112571;28;20024;-87
2022/08/10 10:41:51;;;;;;;1.45;0.98;;;29.30;55.00;;;;;;5112242;28;20067;-89
2022/08/10 10:44:45;;;;;;;1.45;1.10;;;29.40;57.10;;;;;;5112519;28;20457;-86
2022/08/10 10:47:21;;;;;;;5.70;1.75;;;29.50;55.00;;;;;;5112178;28;20027;-87
2022/08/10 10:50:17;;;;;;;2.88;1.10;;;29.50;54.90;;;;;;5113914;28;20066;-86
2022/08/10 10:53:04;;;;;;;3.28;1.10;;;29.70;54.80;;;;;;5114889;28;20020;-86
2022/08/10 10:55:55;;;;;;;4.00;1.25;;;29.90;58.10;;;;;;5125334;28;20027;-85
2022/08/10 10:58:28;;;;;;;2.63;1.33;;;30.20;56.10;;;;;;5120782;28;20119;-85
2022/08/10 11:01:19;;;;;;;4.78;1.05;;;30.40;53.00;;;;;;5115367;28;20412;-89
2022/08/10 11:04:03;;;;;;;3.45;0.90;;;30.30;52.60;;;;;;5114250;28;20035;-85
2022/08/10 11:06:55;;;;;;;1.95;1.13;;;30.10;53.30;;;;;;5110256;28;20019;-85
2022/08/10 11:09:30;;;;;;;3.90;1.23;;;30.00;53.30;;;;;;5111831;28;20031;-86
2022/08/10 11:11:59;;;;;;;2.67;1.02;;;29.70;52.70;;;;;;5110180;28;20024;-85
2022/08/10 11:14:38;;;;;;;2.40;1.27;;;29.40;53.90;;;;;;5112133;28;20032;-88
2022/08/10 11:17:16;;;;;;;1.90;1.10;;;29.20;53.60;;;;;;5111871;28;20031;-86
2022/08/10 11:19:51;;;;;;;2.53;1.30;;;28.90;53.80;;;;;;5111904;28;20035;-86
2022/08/10 11:22:16;;;;;;;3.03;1.60;;;28.50;53.80;;;;;;5112993;28;20039;-86
2022/08/10 11:25:05;;;;;;;5.78;1.23;;;28.40;55.10;;;;;;5114559;27;20027;-87
2022/08/10 11:27:59;;;;;;;2.22;1.30;;;28.30;55.00;;;;;;5113766;28;20442;-86
2022/08/10 11:30:32;;;;;;;1.90;1.35;;;28.20;53.50;;;;;;5116120;28;20038;-84
2022/08/10 11:33:02;;;;;;;2.60;1.13;;;28.40;55.00;;;;;;5120430;28;20035;-84
2022/08/10 11:35:30;;;;;;;1.33;1.13;;;28.70;56.70;;;;;;5120638;28;20035;-84
2022/08/10 11:38:18;;;;;;;2.35;1.17;;;29.10;54.60;;;;;;5116506;28;20219;-85
2022/08/10 11:40:48;;;;;;;3.15;1.15;;;29.60;52.70;;;;;;5119890;28;20023;-86
2022/08/10 11:43:21;;;;;;;2.22;1.30;;;29.80;50.80;;;;;;5124486;28;20037;-86
2022/08/10 11:45:55;;;;;;;4.38;1.92;;;29.90;51.60;;;;;;5127259;28;20050;-85
2022/08/10 11:48:38;;;;;;;8.60;1.63;;;30.00;51.60;;;;;;5123691;28;20035;-85
2022/08/10 11:51:10;;;;;;;5.22;1.40;;;30.10;51.40;;;;;;5124238;28;20028;-85
2022/08/10 11:54:00;;;;;;;5.90;1.92;;;30.00;52.20;;;;;;5126175;28;20062;-84
2022/08/10 11:56:36;;;;;;;2.92;1.42;;;30.00;52.30;;;;;;5123517;28;20091;-86
2022/08/10 12:01:49;;;;;;;8.27;1.50;;;29.40;52.40;;;;;;5121824;28;20057;-87
2022/08/10 12:04:16;;;;;;;2.65;1.52;;;29.00;53.20;;;;;;5122910;28;20023;-85
2022/08/10 12:06:42;;;;;;;2.65;1.30;;;29.00;54.10;;;;;;5122335;28;20027;-85
2022/08/10 12:09:11;;;;;;;3.45;1.00;;;28.90;54.50;;;;;;5121821;28;20381;-85
2022/08/10 12:11:37;;;;;;;6.28;1.45;;;28.90;53.40;;;;;;5121674;28;20020;-85
2022/08/10 12:14:23;;;;;;;3.65;1.30;;;28.80;53.40;;;;;;5118857;28;20023;-83
2022/08/10 12:17:08;;;;;;;5.07;1.40;;;28.80;53.60;;;;;;5117192;28;20055;-84
2022/08/10 12:19:37;;;;;;;2.42;1.75;;;29.00;53.70;;;;;;5118027;28;20091;-84
2022/08/10 12:22:10;;;;;;;2.53;1.15;;;29.30;52.80;;;;;;5117480;28;20034;-83
2022/08/10 12:24:47;;;;;;;2.67;1.35;;;29.70;51.90;;;;;;5118533;28;20064;-84
2022/08/10 12:27:22;;;;;;;3.60;1.15;;;30.10;51.60;;;;;;5113994;28;20027;-83
2022/08/10 12:30:06;;;;;;;2.78;1.27;;;30.40;49.70;;;;;;5112652;28;20095;-86
2022/08/10 12:33:00;;;;;;;3.42;1.00;;;30.60;49.60;;;;;;5116259;28;20486;-85
2022/08/10 12:36:02;;;;;;;4.97;1.35;;;30.80;50.40;;;;;;5116117;28;20120;-87
2022/08/10 12:38:48;;;;;;;2.25;1.23;;;30.50;50.60;;;;;;5103141;28;20032;-87
2022/08/10 12:41:36;;;;;;;1.98;1.00;;;30.60;51.00;;;;;;5116323;28;20127;-85
2022/08/10 12:44:08;;;;;;;2.40;1.20;;;30.40;50.50;;;;;;5112462;28;20110;-86
2022/08/10 12:46:37;;;;;;;;;;;30.30;50.10;;;;;;5110927;28;20088;-86
2022/08/10 12:49:22;;;;;;;1.67;1.45;;;30.10;50.00;;;;;;5117033;28;19904;-87
2022/08/10 12:52:10;;;;;;;3.20;1.50;;;30.00;49.90;;;;;;5115993;28;20027;-88
2022/08/10 12:54:36;;;;;;;3.03;1.20;;;29.90;50.10;;;;;;5115450;28;20512;-85
2022/08/10 12:57:13;;;;;;;2.30;1.33;;;29.80;50.20;;;;;;5113865;28;20059;-87
2022/08/10 12:59:48;;;;;;;2.88;1.10;;;29.70;49.70;;;;;;5115747;28;20028;-86
2022/08/10 13:02:23;;;;;;;4.78;1.20;;;29.70;51.70;;;;;;5114535;28;20076;-88
2022/08/10 13:04:51;;;;;;;3.97;1.20;;;29.70;51.20;;;;;;5115037;28;20031;-86
2022/08/10 13:07:29;;;;;;;9.15;1.50;;;29.80;49.50;;;;;;5114259;28;20043;-85
2022/08/10 13:10:01;;;;;;;2.15;1.20;;;29.90;49.20;;;;;;5114953;28;20486;-86
2022/08/10 13:12:30;;;;;;;2.33;1.17;;;30.20;49.80;;;;;;5113168;28;20031;-88
2022/08/10 13:15:03;;;;;;;4.30;1.20;;;30.50;51.10;;;;;;5115584;28;20028;-88
2022/08/10 13:17:33;;;;;;;6.88;1.25;;;30.90;49.70;;;;;;5117010;28;20020;-86
2022/08/10 13:20:05;;;;;;;7.22;1.48;;;31.10;48.80;;;;;;5114365;28;20404;-86
2022/08/10 13:22:33;;;;;;;4.72;1.35;;;31.00;48.30;;;;;;5115967;28;20088;-85
2022/08/10 13:25:02;;;;;;;3.17;1.23;;;30.70;49.00;;;;;;5115665;28;20043;-86